Time;durP1;ratioP1;P1;durP2;ratioP2;P2;SDS_P1;SDS_P2;PMS_P1;PMS_P2;Temp;Humidity;BMP_temperature;BMP_pressure;BME280_temperature;BME280_humidity;BME280_pressure;Samples;Min_cycle;Max_cycle;Signal;HPM_P1;HPM_P2
2022/10/16 00:01:09;;;;;;;;;;;;;;;18.58;60.57;100082.72;4922439;28;6939;-81
2022/10/16 00:03:35;;;;;;;;;;;;;;;18.58;60.00;100085.31;4924041;28;8549;-81
2022/10/16 00:06:01;;;;;;;;;;;;;;;18.58;60.53;100077.53;4934647;28;7016;-81
2022/10/16 00:08:27;;;;;;;;;;;;;;;18.58;60.15;100065.41;4907031;28;6978;-81
2022/10/16 00:11:10;;;;;;;;;;;;;;;18.57;60.28;100062.81;4929872;28;6983;-81
2022/10/16 00:13:39;;;;;;;;;;;;;;;18.56;60.02;100066.28;4937714;28;6804;-81
2022/10/16 00:16:05;;;;;;;;;;;;;;;18.56;60.08;100066.28;4920094;28;7016;-81
2022/10/16 00:18:31;;;;;;;;;;;;;;;18.53;60.39;100059.31;4928776;28;8279;-81
2022/10/16 00:21:07;;;;;;;;;;;;;;;18.48;60.10;100049.75;4919509;28;6963;-82
2022/10/16 00:23:33;;;;;;;;;;;;;;;18.45;59.61;100054.06;4936561;28;6812;-81
2022/10/16 00:26:03;;;;;;;;;;;;;;;18.41;59.69;100056.59;4938422;28;6780;-81
2022/10/16 00:28:30;;;;;;;;;;;;;;;18.37;59.75;100050.53;4920775;28;6985;-81
2022/10/16 00:30:56;;;;;;;;;;;;;;;18.34;60.09;100053.06;4937823;28;6848;-82
2022/10/16 00:33:22;;;;;;;;;;;;;;;18.30;60.21;100049.59;4923254;28;8431;-81
2022/10/16 00:35:48;;;;;;;;;;;;;;;18.27;59.95;100044.34;4920597;28;8497;-81
2022/10/16 00:38:14;;;;;;;;;;;;;;;18.24;59.81;100041.72;4908680;28;7130;-81
2022/10/16 00:40:40;;;;;;;;;;;;;;;18.23;60.39;100039.09;4921594;28;6856;-81
2022/10/16 00:43:36;;;;;;;;;;;;;;;18.21;60.13;100033.94;4925976;28;7262;-81
2022/10/16 00:46:28;;;;;;;;;;;;;;;18.22;60.06;100039.97;4922648;28;7283;-81
2022/10/16 00:49:10;;;;;;;;;;;;;;;18.22;60.77;100034.78;4906057;28;6867;-81
2022/10/16 00:51:44;;;;;;;;;;;;;;;18.21;60.52;100046.91;4938813;28;8877;-81
2022/10/16 00:54:22;;;;;;;;;;;;;;;18.24;60.30;100059.00;4925400;28;7231;-81
2022/10/16 00:56:49;;;;;;;;;;;;;;;18.24;60.03;100059.00;4899584;28;6996;-81
2022/10/16 00:59:29;;;;;;;;;;;;;;;18.24;60.04;100053.81;4937340;28;7246;-81
2022/10/16 01:01:56;;;;;;;;;;;;;;;18.24;60.35;100054.69;4921312;28;6995;-81
2022/10/16 01:04:24;;;;;;;;;;;;;;;18.25;59.88;100060.75;4917826;28;7235;-81
2022/10/16 01:07:23;;;;;;;;;;;;;;;18.25;60.12;100060.75;4932098;28;6991;-81
2022/10/16 01:10:17;;;;;;;;;;;;;;;18.23;59.65;100068.53;4929288;28;7262;-81
2022/10/16 01:12:50;;;;;;;;;;;;;;;18.20;60.09;100062.44;4922917;28;7304;-81
2022/10/16 01:15:30;;;;;;;;;;;;;;;18.20;59.61;100058.09;4901300;29;7063;-81
2022/10/16 01:18:34;;;;;;;;;;;;;;;18.19;59.54;100061.53;4935214;28;7096;-81
2022/10/16 01:21:29;;;;;;;;;;;;;;;18.17;59.65;100065.84;4935642;28;7206;-81
2022/10/16 01:24:01;;;;;;;;;;;;;;;18.16;59.58;100066.72;4925086;28;7165;-81
2022/10/16 01:27:07;;;;;;;;;;;;;;;18.15;59.27;100065.81;4936277;28;7179;-81
2022/10/16 01:29:47;;;;;;;;;;;;;;;18.11;59.15;100063.22;4936186;28;7020;-81
2022/10/16 01:32:23;;;;;;;;;;;;;;;18.09;59.46;100075.25;4934995;28;6976;-81
2022/10/16 01:35:21;;;;;;;;;;;;;;;18.09;58.96;100083.03;4918514;28;6975;-81
2022/10/16 01:38:16;;;;;;;;;;;;;;;18.07;59.72;100087.34;4923192;28;7278;-81
2022/10/16 01:40:50;;;;;;;;;;;;;;;18.05;59.36;100089.91;4933135;28;6908;-81
2022/10/16 01:43:25;;;;;;;;;;;;;;;18.07;59.00;100079.56;4927897;28;7243;-81
2022/10/16 01:45:53;;;;;;;;;;;;;;;18.07;59.29;100095.13;4923161;28;7166;-81
2022/10/16 01:48:21;;;;;;;;;;;;;;;18.04;59.11;100088.16;4930192;28;6960;-81
2022/10/16 01:51:13;;;;;;;;;;;;;;;18.04;59.19;100077.78;4933054;28;6816;-81
2022/10/16 01:53:44;;;;;;;;;;;;;;;18.03;58.98;100094.19;4921486;28;7043;-81
2022/10/16 01:56:13;;;;;;;;;;;;;;;18.02;59.39;100088.13;4933073;28;6816;-81
2022/10/16 01:58:52;;;;;;;;;;;;;;;18.00;58.57;100096.75;4918722;28;8538;-81
2022/10/16 02:01:23;;;;;;;;;;;;;;;18.00;58.90;100096.75;4917436;28;7517;-81
2022/10/16 02:03:56;;;;;;;;;;;;;;;18.02;59.11;100102.81;4917079;28;8440;-78
2022/10/16 02:06:23;;;;;;;;;;;;;;;18.01;58.87;100096.78;4937070;28;6868;-85
2022/10/16 02:08:49;;;;;;;;;;;;;;;18.02;58.89;100100.22;4920323;28;9117;-82
2022/10/16 02:11:14;;;;;;;;;;;;;;;18.04;58.90;100098.53;4926976;28;7009;-85
2022/10/16 02:14:05;;;;;;;;;;;;;;;18.06;59.17;100089.09;4934090;28;6776;-85
2022/10/16 02:16:46;;;;;;;;;;;;;;;18.06;58.80;100091.69;4932285;28;6986;-85
2022/10/16 02:19:19;;;;;;;;;;;;;;;18.07;59.33;100077.84;4918149;28;6983;-83
2022/10/16 02:21:57;;;;;;;;;;;;;;;18.07;59.38;100090.81;4922161;28;8795;-83
2022/10/16 02:24:58;;;;;;;;;;;;;;;18.08;58.58;100105.53;4927682;29;6947;-86
2022/10/16 02:28:08;;;;;;;;;;;;;;;18.08;58.71;100082.19;4932111;28;7108;-82
2022/10/16 02:30:48;;;;;;;;;;;;;;;18.06;58.99;100076.13;4922472;28;7221;-85
2022/10/16 02:33:17;;;;;;;;;;;;;;;18.05;58.73;100082.13;4938392;28;7295;-85
2022/10/16 02:35:47;;;;;;;;;;;;;;;18.05;58.94;100087.31;4936843;28;6828;-85
2022/10/16 02:38:17;;;;;;;;;;;;;;;18.03;58.70;100099.34;4937131;28;6816;-86
2022/10/16 02:40:43;;;;;;;;;;;;;;;18.01;58.65;100098.47;4938567;28;7484;-85
2022/10/16 02:43:10;;;;;;;;;;;;;;;17.98;58.68;100091.53;4923855;28;6998;-84
2022/10/16 02:45:36;;;;;;;;;;;;;;;17.96;58.61;100092.34;4937844;28;6827;-81
2022/10/16 02:48:01;;;;;;;;;;;;;;;17.91;58.76;100100.94;4936972;28;7211;-85
2022/10/16 02:50:27;;;;;;;;;;;;;;;17.91;58.59;100103.53;4936554;28;7226;-83
2022/10/16 02:52:53;;;;;;;;;;;;;;;17.89;58.51;100102.66;4935439;28;6813;-87
2022/10/16 02:55:18;;;;;;;;;;;;;;;17.87;59.00;100096.59;4937585;28;6820;-83
2022/10/16 02:57:44;;;;;;;;;;;;;;;17.88;58.85;100093.16;4938245;28;7187;-86
2022/10/16 03:00:14;;;;;;;;;;;;;;;17.87;58.56;100085.34;4932739;28;6843;-86
2022/10/16 03:02:39;;;;;;;;;;;;;;;17.85;58.68;100087.03;4931627;29;6784;-82
2022/10/16 03:05:05;;;;;;;;;;;;;;;17.83;59.09;100080.97;4922608;28;6768;-85
2022/10/16 03:07:31;;;;;;;;;;;;;;;17.84;59.08;100083.56;4924429;29;7152;-85
2022/10/16 03:09:59;;;;;;;;;;;;;;;17.83;58.75;100089.59;4930009;28;8335;-85
2022/10/16 03:12:29;;;;;;;;;;;;;;;17.83;59.21;100094.78;4941922;28;6985;-84
2022/10/16 03:14:56;;;;;;;;;;;;;;;17.83;59.04;100089.59;4923613;28;8508;-86
2022/10/16 03:17:23;;;;;;;;;;;;;;;17.82;59.30;100087.88;4922454;29;7092;-84
2022/10/16 03:19:49;;;;;;;;;;;;;;;17.83;58.81;100088.75;4906539;28;8744;-83
2022/10/16 03:22:14;;;;;;;;;;;;;;;17.82;59.24;100103.41;4917442;28;7225;-85
2022/10/16 03:24:40;;;;;;;;;;;;;;;17.80;58.94;100099.94;4920152;29;6963;-86
2022/10/16 03:27:06;;;;;;;;;;;;;;;17.80;59.30;100099.94;4922871;28;7116;-85
2022/10/16 03:29:32;;;;;;;;;;;;;;;17.77;59.07;100094.72;4938310;28;7558;-86
2022/10/16 03:31:59;;;;;;;;;;;;;;;17.77;59.15;100094.72;4925453;28;7489;-82
2022/10/16 03:34:25;;;;;;;;;;;;;;;17.72;59.23;100094.66;4933379;28;6853;-83
2022/10/16 03:36:52;;;;;;;;;;;;;;;17.68;59.18;100104.97;4921682;28;7030;-86
2022/10/16 03:39:17;;;;;;;;;;;;;;;17.63;58.90;100102.31;4918196;28;6880;-85
2022/10/16 03:41:43;;;;;;;;;;;;;;;17.59;59.38;100119.53;4919038;29;8429;-82
2022/10/16 03:44:09;;;;;;;;;;;;;;;17.55;59.25;100115.13;4902577;29;7934;-85
2022/10/16 03:46:34;;;;;;;;;;;;;;;17.53;59.02;100121.13;4928036;28;8503;-86
2022/10/16 03:49:00;;;;;;;;;;;;;;;17.50;59.72;100127.16;4918564;29;7242;-86
2022/10/16 03:51:25;;;;;;;;;;;;;;;17.45;59.71;100115.84;4922889;29;8522;-86
2022/10/16 03:53:51;;;;;;;;;;;;;;;17.42;59.45;100118.41;4934837;28;7200;-85
2022/10/16 03:56:17;;;;;;;;;;;;;;;17.40;59.46;100125.28;4905715;29;7076;-86
2022/10/16 03:58:42;;;;;;;;;;;;;;;17.37;59.97;100118.31;4927500;29;6816;-86
2022/10/16 04:01:08;;;;;;;;;;;;;;;17.33;59.48;100120.00;4931221;28;7038;-84
2022/10/16 04:03:34;;;;;;;;;;;;;;;17.32;60.25;100126.03;4929141;28;8485;-87
2022/10/16 04:05:59;;;;;;;;;;;;;;;17.31;59.92;100123.41;4936706;28;7175;-86
2022/10/16 04:08:25;;;;;;;;;;;;;;;17.31;60.16;100126.88;4936119;28;6845;-86
2022/10/16 04:10:51;;;;;;;;;;;;;;;17.32;60.11;100135.50;4937660;28;7470;-84
2022/10/16 04:13:17;;;;;;;;;;;;;;;17.30;59.93;100130.31;4912292;28;8418;-86
2022/10/16 04:15:45;;;;;;;;;;;;;;;17.30;60.22;100132.03;4935640;28;8217;-86
2022/10/16 04:18:10;;;;;;;;;;;;;;;17.27;60.01;100135.44;4911408;28;9054;-87
2022/10/16 04:20:36;;;;;;;;;;;;;;;17.25;59.85;100131.94;4921047;28;7030;-87
2022/10/16 04:23:01;;;;;;;;;;;;;;;17.24;60.04;100127.63;4934764;28;7846;-87
2022/10/16 04:25:27;;;;;;;;;;;;;;;17.22;60.34;100137.09;4924875;28;7256;-86
2022/10/16 04:27:54;;;;;;;;;;;;;;;17.20;60.04;100133.59;4926773;28;6946;-84
2022/10/16 04:30:21;;;;;;;;;;;;;;;17.17;60.13;100146.47;4903106;28;7251;-85
2022/10/16 04:32:51;;;;;;;;;;;;;;;17.16;60.21;100162.88;4916037;28;6980;-86
2022/10/16 04:35:19;;;;;;;;;;;;;;;17.12;60.35;100174.03;4939701;28;7273;-85
2022/10/16 04:37:45;;;;;;;;;;;;;;;17.10;60.61;100179.16;4917602;28;6985;-86
2022/10/16 04:40:11;;;;;;;;;;;;;;;17.10;60.41;100188.69;4925719;28;6955;-86
2022/10/16 04:42:36;;;;;;;;;;;;;;;17.08;60.49;100176.53;4925542;28;7231;-87
2022/10/16 04:45:04;;;;;;;;;;;;;;;17.07;60.19;100174.81;4938560;28;7321;-83
2022/10/16 04:47:30;;;;;;;;;;;;;;;17.05;60.15;100175.66;4935264;28;6978;-87
2022/10/16 04:49:56;;;;;;;;;;;;;;;17.03;60.44;100175.59;4922819;28;8365;-83
2022/10/16 04:52:24;;;;;;;;;;;;;;;17.00;60.26;100183.34;4926175;28;8908;-84
2022/10/16 04:54:50;;;;;;;;;;;;;;;16.96;60.21;100176.31;4911039;28;7414;-84
2022/10/16 04:57:17;;;;;;;;;;;;;;;16.94;60.31;100178.00;4933319;28;6956;-85
2022/10/16 04:59:42;;;;;;;;;;;;;;;16.92;60.59;100192.63;4925077;28;6847;-84
2022/10/16 05:02:08;;;;;;;;;;;;;;;16.89;60.35;100195.16;4910001;28;8496;-82
2022/10/16 05:04:34;;;;;;;;;;;;;;;16.87;60.69;100196.84;4927151;28;8385;-81
2022/10/16 05:07:00;;;;;;;;;;;;;;;16.84;60.84;100195.06;4937714;28;6793;-84
2022/10/16 05:09:25;;;;;;;;;;;;;;;16.85;61.29;100194.25;4941533;28;6923;-84
2022/10/16 05:11:51;;;;;;;;;;;;;;;16.87;61.40;100196.84;4908203;28;8454;-86
2022/10/16 05:14:16;;;;;;;;;;;;;;;16.89;61.44;100184.78;4921100;28;7259;-85
2022/10/16 05:16:42;;;;;;;;;;;;;;;16.92;61.85;100196.06;4919366;28;7349;-81
2022/10/16 05:19:08;;;;;;;;;;;;;;;16.94;61.77;100196.13;4929379;28;6860;-86
2022/10/16 05:21:33;;;;;;;;;;;;;;;16.97;61.47;100197.91;4919821;28;8465;-83
2022/10/16 05:23:59;;;;;;;;;;;;;;;17.01;61.51;100212.66;4925836;28;7287;-86
2022/10/16 05:26:25;;;;;;;;;;;;;;;17.04;61.35;100210.13;4935298;28;6773;-82
2022/10/16 05:28:50;;;;;;;;;;;;;;;17.06;61.20;100219.66;4914620;28;8427;-82
2022/10/16 05:31:16;;;;;;;;;;;;;;;17.10;61.10;100222.34;4922430;28;6985;-87
2022/10/16 05:33:43;;;;;;;;;;;;;;;17.12;61.44;100226.66;4933740;28;7234;-86
2022/10/16 05:36:09;;;;;;;;;;;;;;;17.14;61.31;100224.13;4934752;28;7256;-86
2022/10/16 05:38:36;;;;;;;;;;;;;;;17.16;61.18;100219.84;4929289;28;7110;-86
2022/10/16 05:41:04;;;;;;;;;;;;;;;17.16;60.96;100225.00;4918161;28;7265;-86
2022/10/16 05:43:32;;;;;;;;;;;;;;;17.18;61.00;100231.09;4918761;28;6952;-83
2022/10/16 05:46:04;;;;;;;;;;;;;;;17.19;61.02;100240.59;4930337;28;7139;-81
2022/10/16 05:48:30;;;;;;;;;;;;;;;17.20;61.31;100237.19;4936232;28;6800;-84
2022/10/16 05:51:06;;;;;;;;;;;;;;;17.20;61.58;100250.13;4930957;28;6796;-85
2022/10/16 05:53:35;;;;;;;;;;;;;;;17.21;61.31;100249.28;4930310;28;6804;-86
2022/10/16 05:56:03;;;;;;;;;;;;;;;17.18;60.96;100244.03;4924494;28;7420;-83
2022/10/16 05:58:33;;;;;;;;;;;;;;;17.19;61.08;100245.78;4911388;28;6982;-86
2022/10/16 06:01:12;;;;;;;;;;;;;;;17.17;61.24;100250.94;4934287;28;6797;-86
2022/10/16 06:03:38;;;;;;;;;;;;;;;17.17;61.36;100252.66;4922314;28;6971;-86
2022/10/16 06:06:16;;;;;;;;;;;;;;;17.18;61.43;100254.41;4936112;28;7023;-84
2022/10/16 06:08:45;;;;;;;;;;;;;;;17.19;61.70;100258.72;4915836;28;6989;-87
2022/10/16 06:11:18;;;;;;;;;;;;;;;17.19;61.64;100257.03;4932519;28;7016;-84
2022/10/16 06:13:45;;;;;;;;;;;;;;;17.21;61.74;100255.31;4921872;28;6800;-82
2022/10/16 06:16:12;;;;;;;;;;;;;;;17.22;61.52;100266.56;4934559;28;7057;-85
2022/10/16 06:18:38;;;;;;;;;;;;;;;17.23;61.58;100260.53;4918847;28;6784;-82
2022/10/16 06:21:14;;;;;;;;;;;;;;;17.28;61.94;100282.22;4932581;28;6990;-85
2022/10/16 06:23:39;;;;;;;;;;;;;;;17.30;61.60;100284.84;4900257;28;6925;-81
2022/10/16 06:26:18;;;;;;;;;;;;;;;17.33;61.74;100285.78;4925009;28;7253;-86
2022/10/16 06:28:44;;;;;;;;;;;;;;;17.37;61.87;100297.06;4933133;28;7001;-87
2022/10/16 06:31:12;;;;;;;;;;;;;;;17.40;61.68;100291.94;4934666;28;6779;-85
2022/10/16 06:33:39;;;;;;;;;;;;;;;17.45;61.71;100295.50;4922074;28;7138;-86
2022/10/16 06:36:08;;;;;;;;;;;;;;;17.50;61.69;100295.56;4930840;28;6804;-85
2022/10/16 06:38:33;;;;;;;;;;;;;;;17.57;62.04;100301.72;4930066;28;7004;-86
2022/10/16 06:41:00;;;;;;;;;;;;;;;17.59;61.27;100300.03;4931961;28;7182;-85
2022/10/16 06:43:31;;;;;;;;;;;;;;;17.61;61.02;100309.59;4923677;28;6780;-85
2022/10/16 06:45:59;;;;;;;;;;;;;;;17.63;61.50;100310.47;4937273;28;6864;-84
2022/10/16 06:48:26;;;;;;;;;;;;;;;17.63;61.25;100315.66;4920225;28;6816;-85
2022/10/16 06:51:13;;;;;;;;;;;;;;;17.63;61.38;100318.25;4918547;28;7011;-86
2022/10/16 06:53:49;;;;;;;;;;;;;;;17.62;60.83;100324.28;4934118;28;7392;-83
2022/10/16 06:56:22;;;;;;;;;;;;;;;17.61;61.22;100329.44;4918818;28;7142;-80
2022/10/16 06:58:49;;;;;;;;;;;;;;;17.61;60.72;100334.63;4932055;28;6923;-81
2022/10/16 07:01:20;;;;;;;;;;;;;;;17.59;60.89;100336.31;4918729;28;7270;-83
2022/10/16 07:03:47;;;;;;;;;;;;;;;17.57;61.15;100346.63;4917393;28;7145;-82
2022/10/16 07:06:17;;;;;;;;;;;;;;;17.58;61.09;100343.22;4916996;29;7181;-86
2022/10/16 07:08:45;;;;;;;;;;;;;;;17.57;61.14;100346.63;4931685;28;6812;-86
2022/10/16 07:11:15;;;;;;;;;;;;;;;17.59;61.37;100352.75;4917416;29;6979;-82
2022/10/16 07:13:43;;;;;;;;;;;;;;;17.60;60.87;100361.38;4918979;28;7011;-86
2022/10/16 07:16:13;;;;;;;;;;;;;;;17.59;61.18;100363.13;4935904;28;7285;-84
2022/10/16 07:18:40;;;;;;;;;;;;;;;17.61;60.98;100363.13;4938686;28;7306;-85
2022/10/16 07:21:07;;;;;;;;;;;;;;;17.60;61.40;100367.44;4935183;28;8631;-86
2022/10/16 07:23:33;;;;;;;;;;;;;;;17.61;60.87;100379.56;4935537;28;10028;-85
2022/10/16 07:25:58;;;;;;;;;;;;;;;17.60;60.92;100377.81;4912714;28;7860;-85
2022/10/16 07:28:24;;;;;;;;;;;;;;;17.60;61.05;100376.91;4928856;28;7222;-86
2022/10/16 07:30:50;;;;;;;;;;;;;;;17.60;61.22;100374.34;4923783;29;7287;-84
2022/10/16 07:33:16;;;;;;;;;;;;;;;17.63;61.64;100382.19;4924012;29;7023;-86
2022/10/16 07:35:50;;;;;;;;;;;;;;;17.67;61.46;100385.69;4929893;28;6768;-83
2022/10/16 07:38:16;;;;;;;;;;;;;;;17.71;61.55;100390.94;4936901;28;8895;-86
2022/10/16 07:40:42;;;;;;;;;;;;;;;17.78;61.97;100397.16;4923867;28;8827;-87
2022/10/16 07:43:07;;;;;;;;;;;;;;;17.87;61.54;100405.09;4913651;28;6972;-85
2022/10/16 07:45:33;;;;;;;;;;;;;;;17.97;62.23;100407.84;4919192;28;6950;-85
2022/10/16 07:47:59;;;;;;;;;;;;;;;18.07;61.94;100404.59;4918420;28;6812;-85
2022/10/16 07:50:24;;;;;;;;;;;;;;;18.17;62.26;100408.22;4934679;28;6776;-87
2022/10/16 07:52:50;;;;;;;;;;;;;;;18.26;61.49;100412.69;4934992;28;6836;-86
2022/10/16 07:55:15;;;;;;;;;;;;;;;18.33;61.29;100406.72;4930249;28;8453;-87
2022/10/16 07:57:41;;;;;;;;;;;;;;;18.43;61.73;100413.81;4923110;28;7068;-86
2022/10/16 08:00:13;;;;;;;;;;;;;;;18.52;61.57;100420.00;4934260;28;6768;-86
2022/10/16 08:02:39;;;;;;;;;;;;;;;18.59;61.29;100425.34;4925371;28;12697;-86
2022/10/16 08:05:06;;;;;;;;;;;;;;;18.66;61.28;100423.69;4924869;28;8630;-87
2022/10/16 08:07:32;;;;;;;;;;;;;;;18.76;61.10;100424.69;4924380;28;6975;-86
2022/10/16 08:09:58;;;;;;;;;;;;;;;18.85;61.08;100421.38;4923719;28;7019;-84
2022/10/16 08:12:25;;;;;;;;;;;;;;;18.93;60.98;100427.56;4934000;28;7247;-88
2022/10/16 08:14:51;;;;;;;;;;;;;;;19.01;60.72;100433.72;4921697;28;8662;-86
2022/10/16 08:17:17;;;;;;;;;;;;;;;19.10;61.00;100429.50;4928462;28;7004;-86
2022/10/16 08:19:47;;;;;;;;;;;;;;;19.19;60.18;100431.38;4932912;28;7186;-85
2022/10/16 08:22:13;;;;;;;;;;;;;;;19.25;60.10;100437.53;4917139;28;6976;-86
2022/10/16 08:24:39;;;;;;;;;;;;;;;19.33;59.94;100434.16;4925322;28;6994;-86
2022/10/16 08:27:06;;;;;;;;;;;;;;;19.43;59.73;100441.22;4922376;28;6975;-81
2022/10/16 08:29:32;;;;;;;;;;;;;;;19.51;59.96;100449.09;4907729;28;8498;-81
2022/10/16 08:31:57;;;;;;;;;;;;;;;19.58;59.12;100450.91;4928381;28;6857;-84
2022/10/16 08:34:23;;;;;;;;;;;;;;;19.67;58.71;100445.81;4928959;28;6788;-86
2022/10/16 08:36:49;;;;;;;;;;;;;;;19.76;58.66;100457.19;4926802;28;7163;-86
2022/10/16 08:39:15;;;;;;;;;;;;;;;19.84;58.67;100465.91;4933612;28;7696;-87
2022/10/16 08:42:06;;;;;;;;;;;;;;;19.91;58.29;100469.47;4936884;28;6792;-87
2022/10/16 08:45:23;;;;;;;;;;;;;;;19.98;57.58;100468.69;4935256;28;7225;-87
2022/10/16 08:48:19;;;;;;;;;;;;;;;20.04;57.89;100475.69;4919841;28;8577;-87
2022/10/16 08:50:49;;;;;;;;;;;;;;;20.08;57.32;100473.13;4917225;28;7463;-86
2022/10/16 08:53:24;;;;;;;;;;;;;;;20.14;57.58;100485.34;4929510;28;8728;-85
2022/10/16 08:55:53;;;;;;;;;;;;;;;20.23;56.69;100487.16;4934206;28;7171;-85
2022/10/16 08:58:27;;;;;;;;;;;;;;;20.29;56.82;100484.63;4908814;28;7157;-88
2022/10/16 09:00:56;;;;;;;;;;;;;;;20.35;56.71;100487.25;4920484;28;7229;-85
2022/10/16 09:03:55;;;;;;;;;;;;;;;20.39;55.97;100483.84;4904418;28;7002;-87
2022/10/16 09:06:42;;;;;;;;;;;;;;;20.44;55.65;100476.09;4923933;28;8422;-85
2022/10/16 09:09:27;;;;;;;;;;;;;;;20.50;55.46;100480.47;4938279;28;6974;-87
2022/10/16 09:12:00;;;;;;;;;;;;;;;20.54;55.47;100487.44;4939257;28;7236;-87
2022/10/16 09:14:58;;;;;;;;;;;;;;;20.59;55.58;100487.47;4934467;28;7804;-86
2022/10/16 09:17:33;;;;;;;;;;;;;;;20.63;55.50;100492.72;4937724;28;7207;-87
2022/10/16 09:20:51;;;;;;;;;;;;;;;20.67;55.20;100499.69;4922083;28;7042;-88
2022/10/16 09:23:29;;;;;;;;;;;;;;;20.74;55.11;100507.53;4902679;28;8486;-85
2022/10/16 09:25:58;;;;;;;;;;;;;;;20.76;54.69;100508.41;4934934;28;7002;-88
2022/10/16 09:28:24;;;;;;;;;;;;;;;20.82;54.65;100513.72;4937066;28;7384;-82
2022/10/16 09:30:50;;;;;;;;;;;;;;;20.86;54.40;100515.50;4934157;28;6906;-84
2022/10/16 09:33:21;;;;;;;;;;;;;;;20.88;54.45;100507.69;4900878;28;7006;-86
2022/10/16 09:35:54;;;;;;;;;;;;;;;20.95;54.64;100510.31;4918386;28;7046;-87
2022/10/16 09:38:28;;;;;;;;;;;;;;;21.03;54.14;100514.72;4916056;28;8444;-86
2022/10/16 09:40:57;;;;;;;;;;;;;;;21.10;53.87;100511.31;4931740;28;6960;-88
2022/10/16 09:43:40;;;;;;;;;;;;;;;21.15;53.91;100512.22;4935117;28;6801;-83
2022/10/16 09:46:21;;;;;;;;;;;;;;;21.17;53.48;100507.00;4934903;28;6816;-83
2022/10/16 09:48:53;;;;;;;;;;;;;;;21.20;53.36;100499.22;4907924;28;7067;-85
2022/10/16 09:51:35;;;;;;;;;;;;;;;21.24;53.70;100503.56;4935219;28;7454;-88
2022/10/16 09:54:06;;;;;;;;;;;;;;;21.37;53.41;100512.34;4935613;28;7130;-84
2022/10/16 09:56:36;;;;;;;;;;;;;;;21.54;53.33;100509.78;4934142;28;7358;-88
2022/10/16 09:59:17;;;;;;;;;;;;;;;21.74;53.87;100507.31;4920040;28;6789;-87
2022/10/16 10:01:50;;;;;;;;;;;;;;;22.29;52.70;100500.47;4920044;28;7077;-84
2022/10/16 10:04:19;;;;;;;;;;;;;;;22.81;51.33;100497.88;4935930;28;6868;-88
2022/10/16 10:06:56;;;;;;;;;;;;;;;22.96;50.11;100494.38;4915824;28;8680;-89
2022/10/16 10:09:38;;;;;;;;;;;;;;;23.03;50.21;100490.88;4930978;28;7191;-86
2022/10/16 10:12:17;;;;;;;;;;;;;;;23.32;50.35;100500.41;4934805;28;6959;-87
2022/10/16 10:14:50;;;;;;;;;;;;;;;24.06;50.47;100490.53;4934743;28;6812;-89
2022/10/16 10:17:27;;;;;;;;;;;;;;;25.01;48.77;100490.59;4907209;28;7167;-89
2022/10/16 10:20:02;;;;;;;;;;;;;;;25.49;46.92;100491.78;4903891;29;7005;-88
2022/10/16 10:22:45;;;;;;;;;;;;;;;25.68;46.04;100497.72;4902994;29;8476;-84
2022/10/16 10:25:11;;;;;;;;;;;;;;;26.04;45.86;100500.72;4924287;28;7429;-89
2022/10/16 10:28:01;;;;;;;;;;;;;;;26.81;45.26;100496.88;4933126;28;6969;-88
2022/10/16 10:30:42;;;;;;;;;;;;;;;27.99;44.22;100495.41;4934859;28;7298;-90
2022/10/16 10:33:16;;;;;;;;;;;;;;;29.14;42.45;100493.47;4927445;28;7257;-86
2022/10/16 10:36:02;;;;;;;;;;;;;;;29.77;40.83;100493.41;4933307;28;6967;-87
2022/10/16 10:38:58;;;;;;;;;;;;;;;30.06;40.19;100491.66;4937174;28;7067;-87
2022/10/16 10:41:30;;;;;;;;;;;;;;;30.58;38.63;100491.69;4933306;28;7151;-86
2022/10/16 10:44:37;;;;;;;;;;;;;;;31.20;37.78;100493.13;4935542;28;6965;-84
2022/10/16 10:47:20;;;;;;;;;;;;;;;31.73;37.11;100499.97;4930188;28;6927;-85
2022/10/16 10:50:11;;;;;;;;;;;;;;;32.13;36.38;100497.50;4934731;28;7346;-86
2022/10/16 10:52:54;;;;;;;;;;;;;;;32.38;35.45;100496.53;4928532;29;7008;-88
2022/10/16 10:56:00;;;;;;;;;;;;;;;32.18;34.06;100495.56;4931952;28;6963;-87
2022/10/16 10:59:01;;;;;;;;;;;;;;;31.94;34.87;100519.47;4935546;28;7223;-85
2022/10/16 11:01:50;;;;;;;;;;;;;;;32.39;34.43;100506.22;4933380;28;7265;-86
2022/10/16 11:04:47;;;;;;;;;;;;;;;33.22;33.81;100504.41;4937971;28;7369;-88
2022/10/16 11:07:28;;;;;;;;;;;;;;;33.82;33.20;100493.72;4915874;29;9146;-87
2022/10/16 11:10:20;;;;;;;;;;;;;;;34.28;32.08;100487.94;4934901;28;7400;-87
2022/10/16 11:12:58;;;;;;;;;;;;;;;34.74;30.87;100490.09;4922551;28;7200;-87
2022/10/16 11:15:37;;;;;;;;;;;;;;;35.20;29.49;100502.78;4937391;28;7331;-87
2022/10/16 11:18:45;;;;;;;;;;;;;;;35.37;28.86;100509.81;4928377;28;7165;-87
2022/10/16 11:21:16;;;;;;;;;;;;;;;35.43;29.01;100512.16;4922002;28;8127;-88
2022/10/16 11:23:59;;;;;;;;;;;;;;;35.72;27.75;100511.50;4912961;28;7254;-85
2022/10/16 11:26:32;;;;;;;;;;;;;;;35.86;27.87;100513.38;4906075;28;7388;-85
2022/10/16 11:29:04;;;;;;;;;;;;;;;35.99;27.26;100510.88;4922556;28;6986;-86
2022/10/16 11:31:42;;;;;;;;;;;;;;;36.14;27.73;100509.16;4925501;28;7135;-81
2022/10/16 11:34:38;;;;;;;;;;;;;;;36.23;27.15;100500.63;4937487;28;7032;-83
2022/10/16 11:37:33;;;;;;;;;;;;;;;36.06;26.69;100512.28;4940450;28;7246;-84
2022/10/16 11:40:26;;;;;;;;;;;;;;;35.37;27.12;100516.97;4921954;28;6820;-84
2022/10/16 11:43:05;;;;;;;;;;;;;;;34.71;27.55;100520.38;4926317;28;7061;-83
2022/10/16 11:45:52;;;;;;;;;;;;;;;33.92;28.28;100525.09;4923132;28;8392;-85
2022/10/16 11:48:41;;;;;;;;;;;;;;;32.76;29.61;100527.66;4922984;28;7247;-83
2022/10/16 11:51:38;;;;;;;;;;;;;;;32.21;30.25;100526.34;4929532;28;7251;-84
2022/10/16 11:54:38;;;;;;;;;;;;;;;32.03;30.45;100533.28;4934487;28;7264;-84
2022/10/16 11:57:18;;;;;;;;;;;;;;;32.43;29.45;100523.72;4938264;28;7668;-84
2022/10/16 11:59:59;;;;;;;;;;;;;;;32.52;29.15;100525.97;4911591;28;8982;-84
2022/10/16 12:02:41;;;;;;;;;;;;;;;32.88;29.14;100526.25;4935848;28;7247;-85
2022/10/16 12:05:24;;;;;;;;;;;;;;;33.24;28.31;100523.78;4923745;28;7007;-82
2022/10/16 12:08:05;;;;;;;;;;;;;;;32.94;28.56;100520.72;4925592;28;6961;-85
2022/10/16 12:10:37;;;;;;;;;;;;;;;32.09;28.81;100522.44;4938655;28;7175;-84
2022/10/16 12:13:40;;;;;;;;;;;;;;;30.94;30.08;100530.16;4918930;28;7334;-82
2022/10/16 12:16:21;;;;;;;;;;;;;;;30.03;30.99;100529.56;4926827;28;7004;-86
2022/10/16 12:18:48;;;;;;;;;;;;;;;29.39;31.73;100526.16;4935071;28;7255;-84
2022/10/16 12:21:18;;;;;;;;;;;;;;;28.93;32.13;100525.66;4917626;28;7041;-81
2022/10/16 12:23:56;;;;;;;;;;;;;;;28.55;32.83;100530.13;4938862;28;6804;-85
2022/10/16 12:26:33;;;;;;;;;;;;;;;28.24;33.01;100546.69;4922544;28;6982;-83
2022/10/16 12:29:34;;;;;;;;;;;;;;;27.94;33.40;100541.19;4907098;28;9165;-83
2022/10/16 12:32:03;;;;;;;;;;;;;;;27.75;34.18;100543.34;4895295;29;7046;-80
2022/10/16 12:34:31;;;;;;;;;;;;;;;27.57;33.92;100538.44;4907631;28;6998;-85
2022/10/16 12:37:13;;;;;;;;;;;;;;;27.45;34.93;100530.78;4931596;28;7307;-85
2022/10/16 12:39:39;;;;;;;;;;;;;;;27.36;35.23;100530.97;4910606;28;8438;-81
2022/10/16 12:42:24;;;;;;;;;;;;;;;27.33;35.29;100536.25;4922681;28;7164;-84
2022/10/16 12:44:50;;;;;;;;;;;;;;;27.34;35.14;100532.75;4907595;28;7164;-83
2022/10/16 12:47:30;;;;;;;;;;;;;;;27.39;35.61;100530.88;4924730;28;7148;-82
2022/10/16 12:49:56;;;;;;;;;;;;;;;27.39;35.64;100530.88;4922275;28;7067;-82
2022/10/16 12:52:33;;;;;;;;;;;;;;;27.31;35.53;100533.69;4926563;28;6966;-85
2022/10/16 12:55:01;;;;;;;;;;;;;;;27.25;35.65;100533.78;4938822;28;7444;-84
2022/10/16 12:58:01;;;;;;;;;;;;;;;27.11;35.77;100534.94;4931481;28;7264;-85
2022/10/16 13:00:41;;;;;;;;;;;;;;;26.90;35.94;100528.28;4938496;28;6958;-83
2022/10/16 13:03:45;;;;;;;;;;;;;;;26.62;35.69;100531.38;4929134;28;6996;-84
2022/10/16 13:06:53;;;;;;;;;;;;;;;26.33;36.06;100535.34;4926868;28;7016;-83
2022/10/16 13:09:40;;;;;;;;;;;;;;;26.09;36.35;100537.44;4902243;28;7065;-85
2022/10/16 13:12:20;;;;;;;;;;;;;;;25.84;36.58;100532.50;4935076;28;7416;-86
2022/10/16 13:15:44;;;;;;;;;;;;;;;25.65;37.06;100532.75;4936123;28;6872;-84
2022/10/16 13:18:40;;;;;;;;;;;;;;;25.47;37.47;100527.69;4922356;28;7258;-86
2022/10/16 13:21:09;;;;;;;;;;;;;;;25.41;37.36;100525.16;4923645;28;6999;-85
2022/10/16 13:24:10;;;;;;;;;;;;;;;25.49;37.47;100525.91;4918187;29;7020;-84